createdAt,value
2023-03-26T00:00:54.032Z,96137.66
2023-03-26T00:03:20.459Z,96132.47
2023-03-26T00:05:48.214Z,96131.22
2023-03-26T00:08:16.578Z,96124.88
2023-03-26T00:10:44.083Z,96120.81
2023-03-26T00:13:11.066Z,96122.69
2023-03-26T00:15:37.535Z,96123.38
2023-03-26T00:18:04.150Z,96126.25
2023-03-26T00:20:34.141Z,96127.34
2023-03-26T00:23:01.468Z,96126.25
2023-03-26T00:25:28.325Z,96126.25
2023-03-26T00:27:54.739Z,96119.41
2023-03-26T00:30:21.135Z,96117.72
2023-03-26T00:32:53.512Z,96122.16
2023-03-26T00:35:20.724Z,96123.66
2023-03-26T00:37:47.102Z,96118.41
2023-03-26T00:40:13.737Z,96117.19
2023-03-26T00:42:40.128Z,96122.13
2023-03-26T00:45:07.693Z,96119.38
2023-03-26T00:47:34.627Z,96116.63
2023-03-26T00:50:01.506Z,96114.84
2023-03-26T00:52:28.487Z,96107.81
2023-03-26T00:54:55.699Z,96109.75
2023-03-26T00:57:34.474Z,96101.75
2023-03-26T01:00:15.815Z,96101.47
2023-03-26T01:02:45.048Z,96097.75
2023-03-26T01:05:36.517Z,96099.69
2023-03-26T01:08:32.066Z,96095.97
2023-03-26T01:11:03.064Z,96097.47
2023-03-26T01:13:34.742Z,96093.38
2023-03-26T01:16:01.938Z,96085.78
2023-03-26T01:18:33.909Z,96081.25
2023-03-26T01:21:05.428Z,96073.69
2023-03-26T01:23:40.265Z,96072.16
2023-03-26T01:26:36.412Z,96056.06
2023-03-26T01:29:04.136Z,96055.47
2023-03-26T01:31:41.487Z,96051.34
2023-03-26T01:34:12.312Z,96039.94
2023-03-26T01:36:50.365Z,96037.28
2023-03-26T01:39:27.348Z,96025.16
2023-03-26T01:41:59.193Z,96025.97
2023-03-26T01:44:25.488Z,96020.91
2023-03-26T01:46:53.384Z,96009.50
2023-03-26T01:49:20.769Z,96007.97
2023-03-26T01:51:48.298Z,96003.03
2023-03-26T01:54:18.865Z,95992.44
2023-03-26T01:57:02.334Z,95999.06
2023-03-26T01:59:50.381Z,95986.66
2023-03-26T02:02:42.723Z,95977.16
2023-03-26T02:05:43.787Z,95978.66
2023-03-26T02:08:23.665Z,95971.88
2023-03-26T02:11:02.178Z,95958.88
2023-03-26T02:13:28.500Z,95954.03
2023-03-26T02:16:04.118Z,95942.44
2023-03-26T02:18:36.400Z,95944.38
2023-03-26T02:21:15.308Z,95939.56
2023-03-26T02:23:46.924Z,95948.63
2023-03-26T02:26:16.661Z,95937.94
2023-03-26T02:28:46.101Z,95935.63
2023-03-26T02:31:13.664Z,95915.34
2023-03-26T02:33:40.110Z,95909.22
2023-03-26T02:36:08.284Z,95910.16
2023-03-26T02:38:35.112Z,95896.28
2023-03-26T02:41:05.387Z,95893.97
2023-03-26T02:43:31.727Z,95894.75
2023-03-26T02:45:58.429Z,95884.03
2023-03-26T02:48:25.171Z,95875.41
2023-03-26T02:50:54.335Z,95868.75
2023-03-26T02:53:29.638Z,95864.16
2023-03-26T02:56:00.116Z,95858.66
2023-03-26T02:58:29.933Z,95857.03
2023-03-26T03:00:56.963Z,95831.81
2023-03-26T03:03:25.991Z,95856.09
2023-03-26T03:05:56.422Z,95845.22
2023-03-26T03:08:26.388Z,95839.56
2023-03-26T03:10:59.377Z,95853.34
2023-03-26T03:13:25.786Z,95840.47
2023-03-26T03:15:52.872Z,95862.31
2023-03-26T03:18:19.530Z,95853.47
2023-03-26T03:20:46.756Z,95841.59
2023-03-26T03:23:13.523Z,95845.25
2023-03-26T03:25:40.997Z,95841.28
2023-03-26T03:28:08.256Z,95853.47
2023-03-26T03:30:35.683Z,95843.47
2023-03-26T03:33:02.551Z,95847.22
2023-03-26T03:35:30.469Z,95841.78
2023-03-26T03:37:57.945Z,95823.34
2023-03-26T03:40:24.705Z,95823.56
2023-03-26T03:42:51.493Z,95824.09
2023-03-26T03:45:18.005Z,95829.19
2023-03-26T03:47:44.652Z,95823.91
2023-03-26T03:50:11.265Z,95816.31
2023-03-26T03:52:37.610Z,95809.25
2023-03-26T03:55:04.308Z,95807.50
2023-03-26T03:57:31.926Z,95804.25
2023-03-26T03:59:58.372Z,95799.88
2023-03-26T04:02:34.727Z,95789.06
2023-03-26T04:05:02.869Z,95793.22
2023-03-26T04:07:31.116Z,95797.16
2023-03-26T04:09:59.902Z,95775.06
2023-03-26T04:12:28.262Z,95787.75
2023-03-26T04:14:55.588Z,95783.94
2023-03-26T04:17:22.723Z,95782.44
2023-03-26T04:19:50.376Z,95773.25
2023-03-26T04:22:18.561Z,95765.72
2023-03-26T04:24:45.666Z,95756.97
2023-03-26T04:27:16.349Z,95749.50
2023-03-26T04:29:46.457Z,95752.81
2023-03-26T04:32:21.697Z,95759.44
2023-03-26T04:34:48.184Z,95747.09
2023-03-26T04:37:24.610Z,95742.31
2023-03-26T04:39:50.921Z,95744.03
2023-03-26T04:42:19.888Z,95749.25
2023-03-26T04:44:50.673Z,95732.22
2023-03-26T04:47:18.480Z,95730.28
2023-03-26T04:49:47.225Z,95722.28
2023-03-26T04:52:14.788Z,95726.16
2023-03-26T04:54:44.126Z,95740.53
2023-03-26T04:57:22.856Z,95720.78
2023-03-26T04:59:50.039Z,95695.13
2023-03-26T05:02:17.972Z,95689.91
2023-03-26T05:04:46.950Z,95694.66
2023-03-26T05:07:18.776Z,95700.44
2023-03-26T05:09:45.253Z,95697.44
2023-03-26T05:12:11.750Z,95688.28
2023-03-26T05:14:38.068Z,95688.53
2023-03-26T05:17:10.586Z,95683.81
2023-03-26T05:19:38.170Z,95683.69
2023-03-26T05:22:04.525Z,95683.22
2023-03-26T05:24:30.838Z,95679.72
2023-03-26T05:26:57.180Z,95661.53
2023-03-26T05:29:24.177Z,95656.31
2023-03-26T05:31:50.884Z,95655.31
2023-03-26T05:34:17.272Z,95653.16
2023-03-26T05:36:43.952Z,95661.19
2023-03-26T05:39:10.648Z,95657.69
2023-03-26T05:41:36.985Z,95649.88
2023-03-26T05:44:03.422Z,95649.03
2023-03-26T05:46:29.800Z,95648.28
2023-03-26T05:48:56.130Z,95652.72
2023-03-26T05:51:23.367Z,95654.19
2023-03-26T05:53:49.727Z,95656.59
2023-03-26T05:56:16.058Z,95648.09
2023-03-26T05:58:43.673Z,95634.84
2023-03-26T06:01:16.716Z,95629.41
2023-03-26T06:03:44.852Z,95625.16
2023-03-26T06:06:15.526Z,95624.09
2023-03-26T06:08:46.795Z,95611.41
2023-03-26T06:11:13.143Z,95601.84
2023-03-26T06:13:39.668Z,95597.63
2023-03-26T06:16:06.548Z,95573.00
2023-03-26T06:18:32.890Z,95567.97
2023-03-26T06:20:59.291Z,95570.13
2023-03-26T06:23:25.695Z,95570.28
2023-03-26T06:25:52.137Z,95579.16
2023-03-26T06:28:18.470Z,95576.41
2023-03-26T06:30:45.165Z,95578.78
2023-03-26T06:33:11.676Z,95582.84
2023-03-26T06:35:38.074Z,95576.03
2023-03-26T06:38:04.541Z,95573.16
2023-03-26T06:40:30.891Z,95562.75
2023-03-26T06:43:08.087Z,95573.81
2023-03-26T06:45:36.782Z,95574.78
2023-03-26T06:48:03.352Z,95579.03
2023-03-26T06:50:32.289Z,95597.38
2023-03-26T06:52:58.817Z,95561.34
2023-03-26T06:55:25.490Z,95570.41
2023-03-26T06:57:53.449Z,95554.31
2023-03-26T07:00:20.973Z,95534.31
2023-03-26T07:02:47.708Z,95545.28
2023-03-26T07:05:14.577Z,95551.56
2023-03-26T07:07:46.433Z,95552.50
2023-03-26T07:10:13.488Z,95550.22
2023-03-26T07:12:39.832Z,95550.34
2023-03-26T07:15:06.817Z,95558.41
2023-03-26T07:17:33.206Z,95564.88
2023-03-26T07:20:01.245Z,95561.72
2023-03-26T07:22:28.109Z,95548.75
2023-03-26T07:24:54.861Z,95552.34
2023-03-26T07:27:36.705Z,95555.50
2023-03-26T07:30:14.926Z,95548.28
2023-03-26T07:32:55.272Z,95552.00
2023-03-26T07:35:41.706Z,95541.56
2023-03-26T07:38:29.617Z,95534.97
2023-03-26T07:41:18.925Z,95540.50
2023-03-26T07:44:09.899Z,95542.72
2023-03-26T07:46:37.059Z,95537.81
2023-03-26T07:49:04.555Z,95529.00
2023-03-26T07:51:32.087Z,95516.88
2023-03-26T07:54:03.969Z,95506.44
2023-03-26T07:56:41.921Z,95504.94
2023-03-26T07:59:33.180Z,95487.75
2023-03-26T08:02:21.395Z,95492.09
2023-03-26T08:05:10.437Z,95497.09
2023-03-26T08:07:53.176Z,95482.63
2023-03-26T08:10:27.158Z,95482.19
2023-03-26T08:13:21.467Z,95481.50
2023-03-26T08:16:15.532Z,95481.66
2023-03-26T08:19:06.053Z,95482.72
2023-03-26T08:21:42.985Z,95486.13
2023-03-26T08:24:57.146Z,95487.75
2023-03-26T08:27:37.655Z,95496.25
2023-03-26T08:30:24.852Z,95499.34
2023-03-26T08:32:57.409Z,95490.16
2023-03-26T08:35:25.562Z,95490.75
2023-03-26T08:37:51.911Z,95481.97
2023-03-26T08:40:47.586Z,95490.50
2023-03-26T08:43:26.135Z,95487.03
2023-03-26T08:46:07.446Z,95464.38
2023-03-26T08:49:01.759Z,95463.97
2023-03-26T08:51:56.735Z,95467.94
2023-03-26T08:55:21.988Z,95475.53
2023-03-26T08:58:05.432Z,95473.59
2023-03-26T09:00:40.261Z,95481.75
2023-03-26T09:03:15.184Z,95472.47
2023-03-26T09:06:03.470Z,95474.34
2023-03-26T09:08:56.068Z,95474.91
2023-03-26T09:11:51.706Z,95494.66
2023-03-26T09:14:58.783Z,95488.06
2023-03-26T09:17:59.372Z,95492.72
2023-03-26T09:20:56.537Z,95517.00
2023-03-26T09:23:46.285Z,95508.72
2023-03-26T09:26:32.590Z,95522.78
2023-03-26T09:29:11.136Z,95518.69
2023-03-26T09:32:11.454Z,95541.81
2023-03-26T09:35:03.364Z,95533.81
2023-03-26T09:37:57.039Z,95532.22
2023-03-26T09:40:36.787Z,95525.16
2023-03-26T09:43:36.120Z,95525.78
2023-03-26T09:46:30.380Z,95525.38
2023-03-26T09:49:17.178Z,95532.50
2023-03-26T09:51:54.468Z,95543.00
2023-03-26T09:54:44.549Z,95540.25
2023-03-26T09:57:21.675Z,95545.56
2023-03-26T10:00:01.673Z,95541.44
2023-03-26T10:02:49.156Z,95535.94
2023-03-26T10:05:44.281Z,95543.25
2023-03-26T10:08:23.362Z,95529.41
2023-03-26T10:11:19.890Z,95523.41
2023-03-26T10:14:18.877Z,95526.75
2023-03-26T10:16:57.677Z,95528.84
2023-03-26T10:19:49.697Z,95537.44
2023-03-26T10:22:25.218Z,95529.00
2023-03-26T10:25:27.667Z,95543.06
2023-03-26T10:28:32.634Z,95536.63
2023-03-26T10:31:10.523Z,95536.66
2023-03-26T10:33:52.144Z,95521.31
2023-03-26T10:36:29.636Z,95512.22
2023-03-26T10:39:37.579Z,95524.41
2023-03-26T10:42:28.646Z,95514.97
2023-03-26T10:45:10.777Z,95514.69
2023-03-26T10:48:01.143Z,95528.72
2023-03-26T10:51:12.900Z,95507.97
2023-03-26T10:53:49.133Z,95504.56
2023-03-26T10:56:25.726Z,95497.78
2023-03-26T10:58:53.622Z,95505.03
2023-03-26T11:01:38.492Z,95496.53
2023-03-26T11:04:28.012Z,95496.97
2023-03-26T11:07:34.214Z,95497.16
2023-03-26T11:10:08.639Z,95500.00
2023-03-26T11:13:12.601Z,95489.22
2023-03-26T11:15:52.034Z,95496.78
2023-03-26T11:18:41.149Z,95497.28
2023-03-26T11:21:32.017Z,95494.22
2023-03-26T11:24:13.311Z,95493.94
2023-03-26T11:26:56.633Z,95489.34
2023-03-26T11:29:49.300Z,95488.88
2023-03-26T11:32:22.436Z,95492.34
2023-03-26T11:35:05.776Z,95470.75
2023-03-26T11:37:38.528Z,95477.78
2023-03-26T11:40:14.164Z,95478.28
2023-03-26T11:42:42.252Z,95461.72
2023-03-26T11:45:17.783Z,95456.16
2023-03-26T11:47:50.522Z,95462.59
2023-03-26T11:50:21.710Z,95461.31
2023-03-26T11:52:48.235Z,95453.59
2023-03-26T11:55:15.744Z,95447.34
2023-03-26T11:57:51.205Z,95446.22
2023-03-26T12:00:21.010Z,95451.44
2023-03-26T12:02:49.038Z,95439.63
2023-03-26T12:05:22.088Z,95441.22
2023-03-26T12:07:57.595Z,95431.63
2023-03-26T12:10:37.632Z,95425.44
2023-03-26T12:13:25.326Z,95450.75
2023-03-26T12:15:58.567Z,95435.69
2023-03-26T12:18:27.519Z,95406.84
2023-03-26T12:21:23.269Z,95418.13
2023-03-26T12:24:05.041Z,95400.50
2023-03-26T12:26:34.381Z,95384.38
2023-03-26T12:29:12.192Z,95378.28
2023-03-26T12:31:50.394Z,95367.44
2023-03-26T12:34:19.840Z,95363.97
2023-03-26T12:37:06.737Z,95369.59
2023-03-26T12:40:07.964Z,95356.97
2023-03-26T12:44:50.757Z,95339.72
2023-03-26T12:45:28.056Z,95344.09
2023-03-26T12:48:03.113Z,95352.53
2023-03-26T12:50:59.152Z,95374.22
2023-03-26T12:53:40.546Z,95359.69
2023-03-26T12:56:19.606Z,95348.91
2023-03-26T12:59:03.792Z,95378.66
2023-03-26T13:01:45.747Z,95350.97
2023-03-26T13:04:27.326Z,95351.13
2023-03-26T13:07:25.143Z,95334.53
2023-03-26T13:09:57.586Z,95351.25
2023-03-26T13:12:38.059Z,95338.81
2023-03-26T13:15:23.474Z,95334.91
2023-03-26T13:18:19.902Z,95336.53
2023-03-26T13:21:08.951Z,95328.78
2023-03-26T13:23:47.272Z,95312.34
2023-03-26T13:26:50.782Z,95315.66
2023-03-26T13:30:00.952Z,95306.94
2023-03-26T13:32:46.697Z,95321.31
2023-03-26T13:35:27.258Z,95284.59
2023-03-26T13:38:31.711Z,95289.75
2023-03-26T13:41:01.128Z,95295.34
2023-03-26T13:44:15.312Z,95287.09
2023-03-26T13:46:47.166Z,95278.94
2023-03-26T13:49:29.298Z,95267.50
2023-03-26T13:52:02.444Z,95273.41
2023-03-26T13:54:34.316Z,95284.09
2023-03-26T13:57:33.524Z,95272.50
2023-03-26T14:00:17.492Z,95281.19
2023-03-26T14:02:48.521Z,95281.81
2023-03-26T14:05:24.052Z,95287.41
2023-03-26T14:08:00.985Z,95298.16
2023-03-26T14:10:33.989Z,95313.09
2023-03-26T14:13:21.295Z,95290.69
2023-03-26T14:15:54.888Z,95294.75
2023-03-26T14:18:27.306Z,95306.41
2023-03-26T14:21:13.149Z,95318.19
2023-03-26T14:24:01.827Z,95324.28
2023-03-26T14:27:01.020Z,95324.63
2023-03-26T14:29:56.372Z,95361.13
2023-03-26T14:32:51.543Z,95436.91
2023-03-26T14:35:35.000Z,95453.25
2023-03-26T14:38:38.930Z,95473.00
2023-03-26T14:41:28.809Z,95489.56
2023-03-26T14:44:16.182Z,95521.72
2023-03-26T14:47:20.415Z,95532.53
2023-03-26T14:50:15.463Z,95484.16
2023-03-26T14:52:53.175Z,95462.50
2023-03-26T14:55:48.481Z,95476.78
2023-03-26T14:58:59.161Z,95485.13
2023-03-26T15:01:27.927Z,95486.66
2023-03-26T15:04:12.802Z,95498.16
2023-03-26T15:07:06.905Z,95497.84
2023-03-26T15:09:59.400Z,95501.41
2023-03-26T15:13:03.574Z,95497.28
2023-03-26T15:15:35.365Z,95508.16
2023-03-26T15:18:20.448Z,95503.16
2023-03-26T15:21:07.588Z,95512.09
2023-03-26T15:23:42.761Z,95517.03
2023-03-26T15:26:37.878Z,95510.22
2023-03-26T15:29:42.128Z,95512.66
2023-03-26T15:32:30.048Z,95503.75
2023-03-26T15:35:30.762Z,95483.28
2023-03-26T15:37:59.756Z,95475.03
2023-03-26T15:40:36.341Z,95490.84
2023-03-26T15:43:14.668Z,95498.38
2023-03-26T15:45:50.892Z,95508.50
2023-03-26T15:48:36.503Z,95512.03
2023-03-26T15:51:31.859Z,95512.03
2023-03-26T15:54:30.224Z,95536.25
2023-03-26T15:57:16.619Z,95596.19
2023-03-26T16:00:02.599Z,95607.44
2023-03-26T16:02:40.207Z,95608.31
2023-03-26T16:05:30.038Z,95588.00
2023-03-26T16:08:15.990Z,95602.38
2023-03-26T16:10:58.758Z,95624.78
2023-03-26T16:14:08.348Z,95616.84
2023-03-26T16:16:57.315Z,95624.44
2023-03-26T16:19:40.925Z,95647.09
2023-03-26T16:22:14.433Z,95620.84
2023-03-26T16:24:46.450Z,95576.41
2023-03-26T16:27:12.762Z,95558.88
2023-03-26T16:30:09.429Z,95534.16
2023-03-26T16:33:07.593Z,95539.41
2023-03-26T16:35:41.723Z,95541.81
2023-03-26T16:38:14.878Z,95554.94
2023-03-26T16:41:00.052Z,95555.50
2023-03-26T16:43:45.946Z,95566.03
2023-03-26T16:46:15.461Z,95561.22
2023-03-26T16:48:59.184Z,95559.22
2023-03-26T16:52:03.214Z,95563.19
2023-03-26T16:54:39.736Z,95563.41
2023-03-26T16:57:21.611Z,95564.94
2023-03-26T17:00:16.288Z,95565.03
2023-03-26T17:02:55.134Z,95552.91
2023-03-26T17:05:36.505Z,95537.84
2023-03-26T17:08:35.661Z,95554.59
2023-03-26T17:11:27.686Z,95561.44
2023-03-26T17:14:06.091Z,95566.25
2023-03-26T17:16:34.066Z,95563.13
2023-03-26T17:19:04.265Z,95557.75
2023-03-26T17:21:51.856Z,95551.16
2023-03-26T17:24:29.331Z,95549.97
2023-03-26T17:27:07.655Z,95543.41
2023-03-26T17:30:00.788Z,95535.13
2023-03-26T17:32:59.798Z,95538.59
2023-03-26T17:35:39.644Z,95544.47
2023-03-26T17:38:29.055Z,95546.03
2023-03-26T17:40:59.248Z,95559.16
2023-03-26T17:43:38.008Z,95558.09
2023-03-26T17:46:26.821Z,95558.00
2023-03-26T17:49:11.421Z,95558.28
2023-03-26T17:51:51.274Z,95553.91
2023-03-26T17:54:23.931Z,95549.31
2023-03-26T17:56:53.230Z,95548.94
2023-03-26T17:59:23.367Z,95544.06
2023-03-26T18:01:57.403Z,95541.66
2023-03-26T18:04:32.283Z,95547.28
2023-03-26T18:07:13.466Z,95546.34
2023-03-26T18:09:56.363Z,95548.25
2023-03-26T18:12:44.337Z,95542.09
2023-03-26T18:15:35.872Z,95539.94
2023-03-26T18:18:11.698Z,95532.13
2023-03-26T18:20:38.559Z,95529.63
2023-03-26T18:23:20.346Z,95534.69
2023-03-26T18:25:55.948Z,95524.50
2023-03-26T18:28:29.924Z,95509.78
2023-03-26T18:31:09.190Z,95525.41
2023-03-26T18:33:45.277Z,95525.00
2023-03-26T18:36:13.606Z,95528.94
2023-03-26T18:38:41.222Z,95531.22
2023-03-26T18:41:19.578Z,95522.84
2023-03-26T18:43:45.955Z,95530.50
2023-03-26T18:46:14.377Z,95519.59
2023-03-26T18:48:41.555Z,95522.88
2023-03-26T18:51:08.241Z,95522.09
2023-03-26T18:53:43.476Z,95519.25
2023-03-26T18:56:37.256Z,95521.69
2023-03-26T18:59:21.734Z,95516.66
2023-03-26T19:01:48.861Z,95512.13
2023-03-26T19:04:16.212Z,95518.47
2023-03-26T19:06:43.855Z,95513.38
2023-03-26T19:09:28.004Z,95516.38
2023-03-26T19:12:04.482Z,95518.50
2023-03-26T19:14:35.198Z,95514.13
2023-03-26T19:17:04.993Z,95514.81
2023-03-26T19:19:36.708Z,95517.03
2023-03-26T19:22:07.347Z,95506.34
2023-03-26T19:24:34.231Z,95507.59
2023-03-26T19:27:01.001Z,95499.50
2023-03-26T19:29:31.395Z,95496.09
2023-03-26T19:32:27.470Z,95497.75
2023-03-26T19:34:53.952Z,95495.78
2023-03-26T19:37:21.819Z,95499.75
2023-03-26T19:39:54.038Z,95493.00
2023-03-26T19:42:27.048Z,95504.78
2023-03-26T19:45:16.429Z,95498.34
2023-03-26T19:47:50.447Z,95502.75
2023-03-26T19:50:30.040Z,95496.53
2023-03-26T19:53:24.096Z,95496.00
2023-03-26T19:56:11.417Z,95498.34
2023-03-26T19:58:37.952Z,95494.22
2023-03-26T20:01:05.289Z,95497.72
2023-03-26T20:03:40.858Z,95494.31
2023-03-26T20:06:11.892Z,95498.56
2023-03-26T20:08:40.345Z,95494.72
2023-03-26T20:11:14.920Z,95487.94
2023-03-26T20:13:41.278Z,95494.25
2023-03-26T20:16:14.552Z,95496.41
2023-03-26T20:18:40.928Z,95500.47
2023-03-26T20:21:12.380Z,95513.47
2023-03-26T20:23:40.772Z,95520.19
2023-03-26T20:26:12.584Z,95527.28
2023-03-26T20:28:47.628Z,95517.66
2023-03-26T20:31:19.244Z,95525.63
2023-03-26T20:33:47.819Z,95519.97
2023-03-26T20:36:14.649Z,95514.69
2023-03-26T20:39:01.617Z,95516.06
2023-03-26T20:41:28.928Z,95505.13
2023-03-26T20:43:55.547Z,95497.66
2023-03-26T20:46:23.851Z,95501.19
2023-03-26T20:48:57.868Z,95502.69
2023-03-26T20:51:24.393Z,95502.97
2023-03-26T20:53:50.961Z,95495.66
2023-03-26T20:56:19.610Z,95490.34
2023-03-26T20:58:50.849Z,95492.38
2023-03-26T21:01:24.599Z,95480.72
2023-03-26T21:03:50.991Z,95484.81
2023-03-26T21:06:17.339Z,95483.97
2023-03-26T21:08:44.677Z,95488.72
2023-03-26T21:11:39.063Z,95485.84
2023-03-26T21:14:22.802Z,95485.91
2023-03-26T21:16:49.695Z,95496.00
2023-03-26T21:19:16.354Z,95502.03
2023-03-26T21:22:02.926Z,95517.66
2023-03-26T21:24:43.981Z,95513.59
2023-03-26T21:27:22.183Z,95518.00
2023-03-26T21:29:48.820Z,95522.13
2023-03-26T21:32:15.466Z,95523.97
2023-03-26T21:34:55.477Z,95523.25
2023-03-26T21:37:24.820Z,95513.31
2023-03-26T21:39:51.463Z,95533.03
2023-03-26T21:42:18.481Z,95522.09
2023-03-26T21:44:45.084Z,95538.16
2023-03-26T21:47:11.810Z,95539.72
2023-03-26T21:49:38.496Z,95529.63
2023-03-26T21:52:05.179Z,95542.41
2023-03-26T21:54:32.834Z,95536.25
2023-03-26T21:57:29.044Z,95531.81
2023-03-26T22:00:18.137Z,95543.72
2023-03-26T22:02:50.598Z,95541.69
2023-03-26T22:05:26.481Z,95539.13
2023-03-26T22:07:56.851Z,95544.41
2023-03-26T22:10:23.325Z,95540.84
2023-03-26T22:12:49.717Z,95535.66
2023-03-26T22:15:19.099Z,95539.16
2023-03-26T22:17:53.556Z,95542.50
2023-03-26T22:20:24.193Z,95538.28
2023-03-26T22:22:50.734Z,95537.88
2023-03-26T22:25:18.363Z,95544.03
2023-03-26T22:27:45.958Z,95544.59
2023-03-26T22:30:13.806Z,95561.44
2023-03-26T22:32:40.648Z,95556.88
2023-03-26T22:35:07.690Z,95561.66
2023-03-26T22:37:35.477Z,95565.22
2023-03-26T22:40:02.006Z,95569.88
2023-03-26T22:42:28.348Z,95572.63
2023-03-26T22:44:54.689Z,95569.06
2023-03-26T22:47:21.751Z,95572.91
2023-03-26T22:49:48.193Z,95578.63
2023-03-26T22:52:14.569Z,95575.41
2023-03-26T22:54:40.903Z,95569.81
2023-03-26T22:57:07.419Z,95575.13
2023-03-26T22:59:33.830Z,95575.81
2023-03-26T23:02:00.496Z,95578.31
2023-03-26T23:04:32.218Z,95577.25
2023-03-26T23:06:58.925Z,95581.03
2023-03-26T23:09:25.694Z,95592.47
2023-03-26T23:11:52.052Z,95591.44
2023-03-26T23:14:18.964Z,95594.47
2023-03-26T23:16:48.303Z,95595.25
2023-03-26T23:19:14.635Z,95586.09
2023-03-26T23:21:41.252Z,95590.44
2023-03-26T23:24:08.058Z,95593.88
2023-03-26T23:26:43.913Z,95593.22
2023-03-26T23:29:16.385Z,95596.63
2023-03-26T23:31:42.817Z,95595.91
2023-03-26T23:34:09.253Z,95596.50
2023-03-26T23:36:36.257Z,95604.88
2023-03-26T23:39:02.789Z,95607.94
2023-03-26T23:41:29.189Z,95604.47
2023-03-26T23:43:56.048Z,95604.81
2023-03-26T23:46:24.615Z,95621.56
2023-03-26T23:48:51.883Z,95609.28
2023-03-26T23:51:19.976Z,95619.97
2023-03-26T23:53:47.691Z,95619.09
2023-03-26T23:56:14.017Z,95618.66
2023-03-26T23:58:40.549Z,95620.38
